Etusivu
Satelliittikuvat 10 päivän ennusteetIlmastoMerisää Syklonit Salamointi LentoasematUKK Uutiskirje Muuta
Sää : Eurooppa Afrikka Pohjois-Amerikka Etelä-Amerikka Aasia Australia-Oseania Muut
Kielet Yhteydenotto

Kittilä, Suomi

Leveyspiiri: 67-42N, Pituuspiiri: 024-51E, korkeus merenpinnasta: 196 m


METAR: EFKT 251550Z AUTO 02001KT CAVOK M21/M23 Q1009
TAF: EFKT 251434Z 2515/2519 VRB02KT 9999 FEW005 TEMPO 2517/2519 BKN004

Aika: 18:13 (16:13 UTC)

Tämänhetkinen sää

Tämä raportti tehtiin 23 minuuttia sitten, kello 15.50 UTC
Tuuli 1 kn pohjoisesta/koillisesta
Lämpötila -21°C
Kosteus 84%
Ilmanpaine 1009 hPa
Näkyvyys 10 km tai enemmän
ei pilviä alle 1500 m:ssä eikä cumulonimbus-pilviä

Muuta yksikköjä

Sääennuste

Tämä raportti tehtiin 1 tunti ja 39 minuuttia sitten, kello 14.34 UTC
Ennuste voimassa 25. päivästä klo 15 UTC - 25. päivään klo 19 UTC
Tuuli 2 kn eri suunnista
Näkyvyys 10 km tai enemmän
Muutamia pilviä 500 ft:n korkeudessa
Ajoittain
25. päivästä klo 17 UTC - 25. päivään klo 19 UTC
Hajonneita pilviä 400 ft:n korkeudessa
Tällä sivustolla oleviin tietoihin sovelletaan vastuuvapauslauseketta
Sää : Eurooppa Afrikka Pohjois-Amerikka Etelä-Amerikka Aasia Australia-Oseania Muut
Satelliittikuvat 10 päivän ennusteetIlmastoMerisää Syklonit Salamointi LentoasematUKK Kielet Yhteydenotto Uutiskirje Muuta